Terminal Aerodrome Forecast
Issued by NWS

Home | Current Version | Previous Version | Text Only | Print | Product List | Glossary On
Versions: 1 2 3 4 5 6 7 8 9 10 11 12 13
500
FTUS44 KLIX 232320
TAFGPT
TAF
KGPT 232320Z 2400/2424 23004KT P6SM VCTS SCT025CB BKN110
     FM240200 25004KT P6SM FEW020 SCT110
     FM241000 34005KT P6SM BKN015 BKN110
     FM241600 07005KT P6SM SCT025 BKN100 PROB30 2416/2422 4SM TSRA
      BKN025CB
     FM242300 13004KT P6SM SCT025 BKN080 PROB30 2423/2424 4SM TSRA
      BKN025CB=

USA.gov is the U.S. government's official web portal to all federal, state and local government web resources and services.